Time;durP1;ratioP1;P1;durP2;ratioP2;P2;SDS_P1;SDS_P2;PMS_P1;PMS_P2;Temp;Humidity;BMP_temperature;BMP_pressure;BME280_temperature;BME280_humidity;BME280_pressure;Samples;Min_cycle;Max_cycle;Signal;HPM_P1;HPM_P2
2022/07/21 00:01:08;;;;;;;;;;;;;;;25.16;37.86;100773.57;1713609;83;20102;-80
2022/07/21 00:03:34;;;;;;;;;;;;;;;25.10;37.92;100771.88;1704588;83;20223;-80
2022/07/21 00:06:00;;;;;;;;;;;;;;;25.05;38.01;100770.44;1695820;83;20167;-80
2022/07/21 00:08:26;;;;;;;;;;;;;;;25.01;38.08;100765.23;1716065;83;20224;-80
2022/07/21 00:10:52;;;;;;;;;;;;;;;24.98;38.16;100769.02;1715640;83;21324;-80
2022/07/21 00:13:18;;;;;;;;;;;;;;;24.95;38.21;100760.77;1715816;83;20184;-80
2022/07/21 00:15:44;;;;;;;;;;;;;;;24.92;38.28;100761.83;1715069;83;20164;-80
2022/07/21 00:18:10;;;;;;;;;;;;;;;24.91;38.36;100756.11;1715955;83;20282;-80
2022/07/21 00:20:36;;;;;;;;;;;;;;;24.89;38.45;100753.62;1715235;83;20247;-80
2022/07/21 00:23:02;;;;;;;;;;;;;;;24.89;38.53;100756.34;1715630;83;21145;-80
2022/07/21 00:25:29;;;;;;;;;;;;;;;24.87;38.60;100755.80;1716243;83;20203;-80
2022/07/21 00:27:55;;;;;;;;;;;;;;;24.87;38.67;100751.70;1715779;83;20457;-80
2022/07/21 00:30:21;;;;;;;;;;;;;;;24.83;38.75;100754.65;1715044;83;20160;-80
2022/07/21 00:32:47;;;;;;;;;;;;;;;24.79;38.84;100748.02;1715504;83;20243;-80
2022/07/21 00:35:13;;;;;;;;;;;;;;;24.76;38.89;100749.36;1715904;83;21021;-80
2022/07/21 00:37:39;;;;;;;;;;;;;;;24.70;38.94;100746.83;1715719;83;21110;-80
2022/07/21 00:40:06;;;;;;;;;;;;;;;24.63;39.02;100755.73;1715982;83;20491;-80
2022/07/21 00:42:32;;;;;;;;;;;;;;;24.57;39.11;100758.09;1716173;83;20161;-80
2022/07/21 00:44:59;;;;;;;;;;;;;;;24.53;39.21;100751.49;1707433;83;20181;-80
2022/07/21 00:47:26;;;;;;;;;;;;;;;24.48;39.28;100750.08;1716089;83;21162;-80
2022/07/21 00:49:52;;;;;;;;;;;;;;;24.45;39.40;100742.41;1715446;83;20229;-80
2022/07/21 00:52:18;;;;;;;;;;;;;;;24.41;39.47;100748.08;1716134;83;20203;-80
2022/07/21 00:54:44;;;;;;;;;;;;;;;24.35;39.56;100734.36;1715951;83;20720;-80
2022/07/21 00:57:10;;;;;;;;;;;;;;;24.33;39.68;100739.25;1715842;83;20473;-80
2022/07/21 00:59:36;;;;;;;;;;;;;;;24.30;39.77;100743.85;1696684;83;21160;-80
2022/07/21 01:02:03;;;;;;;;;;;;;;;24.23;39.84;100744.56;1714012;83;20188;-80
2022/07/21 01:04:29;;;;;;;;;;;;;;;24.18;39.94;100740.93;1709686;83;20448;-80
2022/07/21 01:06:54;;;;;;;;;;;;;;;24.12;40.05;100748.19;1710420;83;20148;-80
2022/07/21 01:09:21;;;;;;;;;;;;;;;24.09;40.13;100754.14;1715770;83;20179;-80
2022/07/21 01:11:47;;;;;;;;;;;;;;;24.04;40.22;100748.60;1715826;83;21191;-79
2022/07/21 01:14:13;;;;;;;;;;;;;;;23.99;40.31;100756.72;1715650;83;20243;-80
2022/07/21 01:16:40;;;;;;;;;;;;;;;23.93;40.38;100754.97;1711947;83;20275;-80
2022/07/21 01:19:06;;;;;;;;;;;;;;;23.86;40.45;100756.50;1690083;83;20153;-80
2022/07/21 01:21:37;;;;;;;;;;;;;;;23.80;40.54;100758.86;1716171;83;20162;-80
2022/07/21 01:24:03;;;;;;;;;;;;;;;23.76;40.62;100755.52;1715561;83;21193;-80
2022/07/21 01:26:29;;;;;;;;;;;;;;;23.71;40.72;100753.55;1713854;83;20441;-80
2022/07/21 01:28:56;;;;;;;;;;;;;;;23.73;40.82;100757.38;1715957;83;20165;-80
2022/07/21 01:31:22;;;;;;;;;;;;;;;23.71;40.92;100758.17;1711367;83;20165;-80
2022/07/21 01:33:47;;;;;;;;;;;;;;;23.67;41.00;100755.65;1715806;83;20235;-81
2022/07/21 01:36:13;;;;;;;;;;;;;;;23.65;41.08;100755.87;1715491;83;21127;-79
2022/07/21 01:41:29;;;;;;;;;;;;;;;23.60;41.31;100749.54;1714710;83;20188;-80
2022/07/21 01:43:56;;;;;;;;;;;;;;;23.52;41.41;100748.57;1716017;83;20682;-80
2022/07/21 01:46:22;;;;;;;;;;;;;;;23.47;41.48;100744.42;1716078;83;20499;-79
2022/07/21 01:48:48;;;;;;;;;;;;;;;23.40;41.56;100750.80;1714051;83;21112;-80
2022/07/21 01:51:14;;;;;;;;;;;;;;;23.33;41.66;100752.84;1711500;83;20180;-79
2022/07/21 01:53:40;;;;;;;;;;;;;;;23.25;41.78;100747.82;1701408;83;20237;-79
2022/07/21 01:56:06;;;;;;;;;;;;;;;23.20;41.83;100748.24;1716100;83;20175;-79
2022/07/21 01:58:32;;;;;;;;;;;;;;;23.16;41.94;100745.19;1715905;83;20177;-79
2022/07/21 02:00:58;;;;;;;;;;;;;;;23.11;42.01;100749.19;1712247;83;21185;-80
2022/07/21 02:03:24;;;;;;;;;;;;;;;23.06;42.14;100742.80;1715948;83;20280;-80
2022/07/21 02:05:49;;;;;;;;;;;;;;;23.03;42.21;100743.30;1699531;83;20600;-80
2022/07/21 02:08:15;;;;;;;;;;;;;;;22.97;42.30;100734.23;1707092;82;20832;-79
2022/07/21 02:10:41;;;;;;;;;;;;;;;22.92;42.43;100728.67;1713125;83;20271;-79
2022/07/21 02:13:07;;;;;;;;;;;;;;;22.90;42.52;100722.66;1715305;83;21055;-80
2022/07/21 02:15:33;;;;;;;;;;;;;;;22.88;42.62;100720.17;1708355;83;20171;-80
2022/07/21 02:17:59;;;;;;;;;;;;;;;22.85;42.73;100719.83;1716243;83;20314;-79
2022/07/21 02:20:25;;;;;;;;;;;;;;;22.80;42.82;100727.35;1716020;83;20142;-80
2022/07/21 02:22:52;;;;;;;;;;;;;;;22.76;42.94;100722.09;1703497;81;90480;-79
2022/07/21 02:25:18;;;;;;;;;;;;;;;22.74;43.01;100720.70;1727795;80;21127;-80
2022/07/21 02:27:45;;;;;;;;;;;;;;;22.71;43.15;100729.34;1739056;82;20159;-80
2022/07/21 02:30:12;;;;;;;;;;;;;;;22.69;43.22;100736.92;1745134;82;20179;-80
2022/07/21 02:32:37;;;;;;;;;;;;;;;22.66;43.29;100726.50;1745112;82;20163;-80
2022/07/21 02:35:04;;;;;;;;;;;;;;;22.66;43.44;100729.22;1745249;82;20240;-80
2022/07/21 02:37:30;;;;;;;;;;;;;;;22.66;43.60;100723.78;1745148;81;21123;-79
2022/07/21 02:39:56;;;;;;;;;;;;;;;22.64;43.68;100721.83;1745108;82;20205;-79
2022/07/21 02:42:21;;;;;;;;;;;;;;;22.64;43.79;100731.34;1745423;82;20201;-79
2022/07/21 02:44:47;;;;;;;;;;;;;;;22.64;43.95;100721.83;1745163;82;20677;-79
2022/07/21 02:47:13;;;;;;;;;;;;;;;22.59;44.01;100710.86;1744979;82;20173;-80
2022/07/21 02:49:39;;;;;;;;;;;;;;;22.57;44.10;100708.90;1745393;82;21113;-79
2022/07/21 02:52:05;;;;;;;;;;;;;;;22.59;44.26;100704.06;1744369;80;20157;-79
2022/07/21 02:54:31;;;;;;;;;;;;;;;22.58;44.33;100711.39;1744403;81;20139;-79
2022/07/21 02:56:57;;;;;;;;;;;;;;;22.59;44.44;100706.78;1743684;82;20179;-80
2022/07/21 02:59:23;;;;;;;;;;;;;;;22.57;44.51;100711.62;1745348;82;20236;-79
2022/07/21 03:01:49;;;;;;;;;;;;;;;22.53;44.56;100713.16;1745146;82;21174;-79
2022/07/21 03:04:15;;;;;;;;;;;;;;;22.48;44.66;100710.35;1745130;82;20169;-79
2022/07/21 03:06:42;;;;;;;;;;;;;;;22.48;44.74;100708.47;1745344;82;20280;-79
2022/07/21 03:09:08;;;;;;;;;;;;;;;22.45;44.77;100710.84;1745292;82;20143;-79
2022/07/21 03:11:35;;;;;;;;;;;;;;;22.40;44.83;100709.66;1745460;82;20190;-79
2022/07/21 03:14:01;;;;;;;;;;;;;;;22.37;44.90;100710.14;1745119;82;21252;-79
2022/07/21 03:16:27;;;;;;;;;;;;;;;22.34;44.95;100707.87;1745328;82;20162;-79
2022/07/21 03:18:53;;;;;;;;;;;;;;;22.30;45.02;100706.73;1745171;81;20256;-79
2022/07/21 03:21:18;;;;;;;;;;;;;;;22.28;45.10;100706.12;1745273;82;20749;-79
2022/07/21 03:23:45;;;;;;;;;;;;;;;22.27;45.16;100714.54;1735642;81;20144;-79
2022/07/21 03:26:12;;;;;;;;;;;;;;;22.24;45.22;100713.09;1733101;82;21040;-79
2022/07/21 03:28:39;;;;;;;;;;;;;;;22.23;45.29;100711.47;1747862;82;20170;-80
2022/07/21 03:31:05;;;;;;;;;;;;;;;22.23;45.37;100718.27;1747843;82;20318;-79
2022/07/21 03:33:31;;;;;;;;;;;;;;;22.23;45.41;100718.79;1736605;81;20193;-80
2022/07/21 03:35:58;;;;;;;;;;;;;;;22.23;45.46;100721.51;1747083;82;20194;-80
2022/07/21 03:38:24;;;;;;;;;;;;;;;22.23;45.49;100722.34;1713261;82;21082;-79
2022/07/21 03:40:50;;;;;;;;;;;;;;;22.22;45.54;100728.83;1745071;82;20139;-79
2022/07/21 03:43:16;;;;;;;;;;;;;;;22.23;45.59;100731.84;1743409;82;20204;-80
2022/07/21 03:45:42;;;;;;;;;;;;;;;22.28;45.61;100732.47;1747530;82;20228;-79
2022/07/21 03:48:08;;;;;;;;;;;;;;;22.32;45.66;100733.13;1744316;81;20220;-79
2022/07/21 03:50:34;;;;;;;;;;;;;;;22.40;45.76;100725.97;1745912;82;21150;-79
2022/07/21 03:53:00;;;;;;;;;;;;;;;22.61;45.83;100730.47;1740840;82;20150;-79
2022/07/21 03:55:26;;;;;;;;;;;;;;;23.09;45.78;100731.43;1747788;82;20740;-80
2022/07/21 03:57:55;;;;;;;;;;;;;;;23.50;45.54;100728.42;1747165;82;20680;-80
2022/07/21 04:00:36;;;;;;;;;;;;;;;24.01;45.30;100725.11;1743456;82;20453;-80
2022/07/21 04:03:02;;;;;;;;;;;;;;;24.56;44.99;100720.45;1747293;82;21836;-80
2022/07/21 04:05:28;;;;;;;;;;;;;;;25.04;44.52;100719.69;1747474;82;20485;-80
2022/07/21 04:07:55;;;;;;;;;;;;;;;25.41;44.24;100721.12;1745888;81;20836;-80
2022/07/21 04:10:28;;;;;;;;;;;;;;;25.85;43.82;100721.79;1737013;82;20995;-80
2022/07/21 04:12:54;;;;;;;;;;;;;;;26.29;43.50;100711.41;1746717;82;20114;-80
2022/07/21 04:15:20;;;;;;;;;;;;;;;26.65;42.98;100710.48;1743333;82;22892;-81
2022/07/21 04:17:46;;;;;;;;;;;;;;;26.98;42.52;100717.47;1745756;81;20181;-80
2022/07/21 04:20:13;;;;;;;;;;;;;;;26.97;41.98;100719.92;1731783;82;20139;-80
2022/07/21 04:22:40;;;;;;;;;;;;;;;27.14;41.75;100705.44;1747376;82;20675;-80
2022/07/21 04:25:06;;;;;;;;;;;;;;;27.53;41.29;100703.58;1759897;81;20473;-81
2022/07/21 04:27:32;;;;;;;;;;;;;;;27.90;40.77;100703.28;1760642;81;21749;-80
2022/07/21 04:29:58;;;;;;;;;;;;;;;27.89;40.33;100705.74;1772304;80;20155;-81
2022/07/21 04:32:24;;;;;;;;;;;;;;;28.13;40.03;100714.50;1769055;81;20317;-81
2022/07/21 04:34:50;;;;;;;;;;;;;;;28.12;39.49;100718.33;1768815;81;20676;-80
2022/07/21 04:37:16;;;;;;;;;;;;;;;28.30;39.33;100722.40;1750738;81;20851;-81
2022/07/21 04:39:42;;;;;;;;;;;;;;;28.47;38.93;100719.31;1742332;82;21798;-81
2022/07/21 04:42:08;;;;;;;;;;;;;;;28.78;38.55;100723.05;1744400;81;20196;-81
2022/07/21 04:44:34;;;;;;;;;;;;;;;28.65;38.00;100718.70;1767323;81;20785;-82
2022/07/21 04:46:59;;;;;;;;;;;;;;;28.38;37.92;100727.87;1746098;82;20701;-81
2022/07/21 04:49:25;;;;;;;;;;;;;;;28.17;38.19;100718.34;1762022;81;20201;-81
2022/07/21 04:51:51;;;;;;;;;;;;;;;27.99;38.42;100717.52;1746536;82;22409;-81
2022/07/21 04:54:17;;;;;;;;;;;;;;;27.90;38.58;100723.84;1745148;82;20192;-81
2022/07/21 04:56:43;;;;;;;;;;;;;;;27.80;38.61;100717.80;1745628;82;20192;-81
2022/07/21 04:59:09;;;;;;;;;;;;;;;27.57;38.59;100726.05;1738272;81;20772;-81
2022/07/21 05:01:35;;;;;;;;;;;;;;;27.42;38.78;100730.66;1746556;81;20169;-81
2022/07/21 05:04:01;;;;;;;;;;;;;;;27.56;38.90;100726.31;1745151;82;21828;-80
2022/07/21 05:06:27;;;;;;;;;;;;;;;27.77;38.87;100730.70;1745610;82;20808;-81
2022/07/21 05:08:53;;;;;;;;;;;;;;;27.71;38.75;100731.80;1742694;82;20204;-81
2022/07/21 05:11:18;;;;;;;;;;;;;;;27.64;38.78;100739.48;1739621;82;20643;-81
2022/07/21 05:13:44;;;;;;;;;;;;;;;27.67;38.75;100738.38;1746016;82;20794;-82
2022/07/21 05:16:10;;;;;;;;;;;;;;;27.72;38.73;100735.66;1745268;82;21846;-81
2022/07/21 05:18:36;;;;;;;;;;;;;;;27.88;38.72;100736.45;1746590;82;20757;-81
2022/07/21 05:21:02;;;;;;;;;;;;;;;27.86;38.59;100731.80;1727050;82;20271;-81
2022/07/21 05:23:28;;;;;;;;;;;;;;;27.90;38.51;100731.53;1743135;82;20776;-81
2022/07/21 05:25:54;;;;;;;;;;;;;;;28.03;38.49;100733.69;1729013;82;20191;-81
2022/07/21 05:28:20;;;;;;;;;;;;;;;28.00;38.39;100729.31;1741130;82;22727;-81
2022/07/21 05:30:45;;;;;;;;;;;;;;;28.08;38.41;100726.84;1740092;82;20185;-81
2022/07/21 05:33:11;;;;;;;;;;;;;;;28.38;38.36;100730.61;1740817;81;20212;-81
2022/07/21 05:35:37;;;;;;;;;;;;;;;28.40;38.15;100731.14;1746920;82;21448;-82
2022/07/21 05:38:03;;;;;;;;;;;;;;;28.39;38.15;100732.27;1725707;82;20183;-82
2022/07/21 05:40:29;;;;;;;;;;;;;;;28.57;38.13;100734.40;1732339;82;21810;-83
2022/07/21 05:42:54;;;;;;;;;;;;;;;28.69;38.05;100737.66;1743397;82;20276;-83
2022/07/21 05:45:20;;;;;;;;;;;;;;;28.77;37.83;100741.20;1736514;81;20238;-82
2022/07/21 05:47:46;;;;;;;;;;;;;;;28.73;37.80;100741.48;1744990;82;21339;-81
2022/07/21 05:50:12;;;;;;;;;;;;;;;28.80;37.70;100739.25;1746588;81;20233;-82
2022/07/21 05:52:38;;;;;;;;;;;;;;;28.98;37.62;100737.79;1746473;81;21815;-82
2022/07/21 05:55:05;;;;;;;;;;;;;;;29.06;37.45;100733.88;1746597;82;21160;-82
2022/07/21 05:57:31;;;;;;;;;;;;;;;28.99;37.31;100730.62;1717103;82;20176;-82
2022/07/21 05:59:58;;;;;;;;;;;;;;;29.02;37.26;100740.24;1745871;82;21278;-82
2022/07/21 06:02:25;;;;;;;;;;;;;;;29.06;37.07;100739.95;1746841;82;20190;-82
2022/07/21 06:04:51;;;;;;;;;;;;;;;29.08;37.08;100723.44;1747433;82;21472;-82
2022/07/21 06:07:17;;;;;;;;;;;;;;;29.23;37.02;100724.73;1747263;82;20980;-83
2022/07/21 06:09:43;;;;;;;;;;;;;;;29.33;36.86;100721.11;1742122;81;20264;-82
2022/07/21 06:12:09;;;;;;;;;;;;;;;29.41;36.75;100723.25;1743294;81;20250;-83
2022/07/21 06:14:35;;;;;;;;;;;;;;;29.52;36.71;100722.62;1738403;81;20138;-82
2022/07/21 06:17:01;;;;;;;;;;;;;;;29.69;36.58;100718.89;1740098;81;22629;-82
2022/07/21 06:19:27;;;;;;;;;;;;;;;29.74;36.41;100716.08;1782985;80;20152;-83
2022/07/21 06:21:53;;;;;;;;;;;;;;;29.97;36.35;100724.16;1766516;79;20201;-82
2022/07/21 06:24:22;;;;;;;;;;;;;;;30.09;36.22;100721.27;1739940;81;20783;-82
2022/07/21 06:26:46;;;;;;;;;;;;;;;30.33;36.06;100725.98;1737313;81;20158;-83
2022/07/21 06:29:12;;;;;;;;;;;;;;;30.44;35.87;100724.75;1736248;81;21728;-83
2022/07/21 06:31:38;;;;;;;;;;;;;;;30.56;35.75;100727.92;1742693;82;20225;-83
2022/07/21 06:34:04;;;;;;;;;;;;;;;30.69;35.71;100726.64;1733716;82;20552;-82
2022/07/21 06:36:30;;;;;;;;;;;;;;;30.86;35.48;100731.64;1746781;81;20559;-82
2022/07/21 06:38:56;;;;;;;;;;;;;;;30.97;35.28;100729.04;1740614;81;20300;-82
2022/07/21 06:41:22;;;;;;;;;;;;;;;31.08;35.10;100728.33;1741056;81;21830;-82
2022/07/21 06:43:48;;;;;;;;;;;;;;;31.26;34.98;100729.45;1746218;81;20189;-82
2022/07/21 06:46:14;;;;;;;;;;;;;;;31.38;34.71;100735.34;1742358;81;20109;-82
2022/07/21 06:48:40;;;;;;;;;;;;;;;31.43;34.57;100732.48;1737718;81;20705;-82
2022/07/21 06:51:05;;;;;;;;;;;;;;;31.21;34.21;100740.80;1739370;81;20177;-82
2022/07/21 06:53:31;;;;;;;;;;;;;;;31.14;34.11;100742.29;1732935;81;21855;-83
2022/07/21 06:55:57;;;;;;;;;;;;;;;31.30;34.19;100740.97;1738951;81;20252;-83
2022/07/21 06:58:24;;;;;;;;;;;;;;;31.35;33.90;100743.62;1731295;81;20775;-84
2022/07/21 07:00:50;;;;;;;;;;;;;;;31.35;33.91;100737.32;1736868;81;21484;-83
2022/07/21 07:03:16;;;;;;;;;;;;;;;31.73;33.97;100738.09;1733245;81;20318;-84
2022/07/21 07:05:42;;;;;;;;;;;;;;;31.93;33.64;100730.83;1727550;81;21857;-84
2022/07/21 07:08:08;;;;;;;;;;;;;;;31.99;33.50;100731.81;1761794;79;20541;-84
2022/07/21 07:10:34;;;;;;;;;;;;;;;32.18;33.42;100722.94;1737227;81;20204;-84
2022/07/21 07:13:01;;;;;;;;;;;;;;;32.14;33.22;100728.80;1732017;81;21211;-84
2022/07/21 07:15:27;;;;;;;;;;;;;;;32.12;33.12;100721.37;1732739;81;20445;-84
2022/07/21 07:17:54;;;;;;;;;;;;;;;32.05;33.02;100733.41;1738590;82;21660;-84
2022/07/21 07:20:23;;;;;;;;;;;;;;;32.34;33.02;100726.75;1764590;80;20097;-83
2022/07/21 07:22:49;;;;;;;;;;;;;;;32.55;32.90;100729.36;1737507;82;20109;-84
2022/07/21 07:25:18;;;;;;;;;;;;;;;32.34;32.66;100726.75;1731600;81;20651;-83
2022/07/21 07:27:48;;;;;;;;;;;;;;;32.24;32.66;100735.23;1723258;82;20114;-84
2022/07/21 07:30:14;;;;;;;;;;;;;;;32.28;32.63;100733.52;1719504;82;22410;-84
2022/07/21 07:32:40;;;;;;;;;;;;;;;32.42;32.48;100729.63;1726591;82;20126;-83
2022/07/21 07:35:07;;;;;;;;;;;;;;;32.54;32.25;100737.41;1709446;82;20259;-83
2022/07/21 07:37:38;;;;;;;;;;;;;;;32.56;32.03;100735.15;1727656;82;20623;-84
2022/07/21 07:40:07;;;;;;;;;;;;;;;32.36;31.91;100739.15;1735736;82;20384;-83
2022/07/21 07:42:34;;;;;;;;;;;;;;;32.25;31.84;100736.89;1731797;82;22551;-83
2022/07/21 07:45:00;;;;;;;;;;;;;;;32.36;31.91;100730.05;1705101;82;20210;-84
2022/07/21 07:47:27;;;;;;;;;;;;;;;32.58;31.63;100734.30;1733734;82;20279;-84
2022/07/21 07:49:53;;;;;;;;;;;;;;;32.82;31.54;100729.38;1728172;82;20604;-83
2022/07/21 07:52:20;;;;;;;;;;;;;;;33.10;31.33;100732.36;1725586;82;20997;-83
2022/07/21 07:54:45;;;;;;;;;;;;;;;33.33;31.22;100729.60;1719935;82;22383;-83
2022/07/21 07:57:11;;;;;;;;;;;;;;;33.57;31.01;100724.57;1735954;82;20201;-84
2022/07/21 07:59:37;;;;;;;;;;;;;;;33.61;30.69;100725.58;1726677;82;20201;-83
2022/07/21 08:02:04;;;;;;;;;;;;;;;33.70;30.42;100725.13;1727431;82;20686;-83
2022/07/21 08:04:30;;;;;;;;;;;;;;;33.77;30.13;100725.48;1731267;82;20245;-82
2022/07/21 08:06:55;;;;;;;;;;;;;;;33.85;30.04;100724.70;1726333;82;21857;-82
2022/07/21 08:09:21;;;;;;;;;;;;;;;33.92;29.78;100724.27;1733006;82;21258;-83
2022/07/21 08:11:47;;;;;;;;;;;;;;;34.11;29.72;100715.97;1724638;82;20216;-82
2022/07/21 08:14:14;;;;;;;;;;;;;;;34.34;29.52;100714.55;1730367;81;20649;-82
2022/07/21 08:16:40;;;;;;;;;;;;;;;34.44;29.30;100719.23;1730672;81;20210;-81
2022/07/21 08:19:06;;;;;;;;;;;;;;;34.49;28.98;100715.48;1726120;81;21784;-81
2022/07/21 08:21:33;;;;;;;;;;;;;;;34.58;28.89;100713.56;1728245;81;20197;-83
2022/07/21 08:24:00;;;;;;;;;;;;;;;34.68;28.61;100716.06;1730030;82;20186;-88
2022/07/21 08:26:26;;;;;;;;;;;;;;;34.82;28.57;100713.96;1731700;82;20725;-82
2022/07/21 08:28:54;;;;;;;;;;;;;;;34.87;28.40;100713.79;1730602;82;20265;-85
2022/07/21 08:31:20;;;;;;;;;;;;;;;35.02;28.40;100715.27;1714349;82;21839;-85
2022/07/21 08:33:46;;;;;;;;;;;;;;;34.95;28.12;100699.13;1743573;80;20179;-85
2022/07/21 08:36:12;;;;;;;;;;;;;;;34.99;28.10;100704.27;1725490;82;20325;-85
2022/07/21 08:38:38;;;;;;;;;;;;;;;35.23;27.96;100714.08;1717691;83;21359;-85
2022/07/21 08:41:04;;;;;;;;;;;;;;;35.36;27.69;100713.12;1724144;83;20478;-85
2022/07/21 08:43:30;;;;;;;;;;;;;;;35.51;27.53;100709.81;1720250;83;22815;-86
2022/07/21 08:45:56;;;;;;;;;;;;;;;35.61;27.49;100712.88;1707054;83;20202;-85
2022/07/21 08:48:23;;;;;;;;;;;;;;;35.59;27.23;100715.36;1707031;83;20835;-85
2022/07/21 08:50:49;;;;;;;;;;;;;;;35.60;27.11;100699.56;1720207;82;21318;-85
2022/07/21 08:53:15;;;;;;;;;;;;;;;35.56;26.93;100704.92;1716434;83;20204;-84
2022/07/21 08:55:41;;;;;;;;;;;;;;;35.47;26.90;100700.52;1723657;83;21828;-84
2022/07/21 08:58:11;;;;;;;;;;;;;;;35.39;26.38;100699.41;1720444;83;20198;-84
2022/07/21 09:00:39;;;;;;;;;;;;;;;35.19;26.20;100703.39;1736592;82;20254;-84
2022/07/21 09:03:11;;;;;;;;;;;;;;;35.00;26.00;100703.14;1734670;82;20705;-85
2022/07/21 09:05:37;;;;;;;;;;;;;;;35.23;26.12;100698.83;1728914;82;20232;-85
2022/07/21 09:08:03;;;;;;;;;;;;;;;35.54;25.91;100700.26;1734245;82;21923;-85
2022/07/21 09:10:31;;;;;;;;;;;;;;;35.68;25.78;100688.98;1727953;81;21096;-84
2022/07/21 09:12:59;;;;;;;;;;;;;;;35.85;25.68;100694.52;1731261;82;20420;-85
2022/07/21 09:18:17;;;;;;;;;;;;;;;35.73;25.45;100694.37;1732017;82;20485;-85
2022/07/21 09:20:47;;;;;;;;;;;;;;;35.59;25.14;100690.95;1740278;81;22500;-85
2022/07/21 09:23:15;;;;;;;;;;;;;;;35.17;24.62;100689.05;1737795;81;20458;-85
2022/07/21 09:25:42;;;;;;;;;;;;;;;35.29;24.68;100690.61;1736023;81;20114;-86
2022/07/21 09:28:17;;;;;;;;;;;;;;;35.36;24.72;100688.94;1721579;82;20754;-86
2022/07/21 09:30:58;;;;;;;;;;;;;;;35.33;24.43;100687.39;1735940;82;20316;-86
2022/07/21 09:33:35;;;;;;;;;;;;;;;35.46;24.51;100680.87;1723160;82;21708;-86
2022/07/21 09:36:08;;;;;;;;;;;;;;;35.68;24.55;100684.83;1734520;81;20185;-86
2022/07/21 09:38:35;;;;;;;;;;;;;;;35.89;24.48;100678.80;1723065;82;20166;-86
2022/07/21 09:41:08;;;;;;;;;;;;;;;35.99;24.57;100675.68;1731436;82;20597;-87
2022/07/21 09:43:45;;;;;;;;;;;;;;;36.16;24.57;100674.00;1733089;82;20078;-86
2022/07/21 09:46:09;;;;;;;;;;;;;;;36.14;23.99;100680.47;1716543;82;22528;-86
2022/07/21 09:48:37;;;;;;;;;;;;;;;36.03;24.02;100671.06;1732134;82;20156;-86
2022/07/21 09:51:29;;;;;;;;;;;;;;;36.17;24.03;100678.41;1730082;82;20181;-86
2022/07/21 09:54:01;;;;;;;;;;;;;;;36.38;24.02;100666.78;1726358;82;21166;-86
2022/07/21 09:56:30;;;;;;;;;;;;;;;36.34;23.90;100668.02;1735629;82;20095;-86
2022/07/21 09:58:56;;;;;;;;;;;;;;;36.25;23.66;100674.19;1735218;82;21822;-86
2022/07/21 10:01:23;;;;;;;;;;;;;;;36.15;23.55;100673.75;1715182;82;20716;-86
2022/07/21 10:03:49;;;;;;;;;;;;;;;36.28;23.62;100672.12;1730085;81;20098;-85
2022/07/21 10:06:16;;;;;;;;;;;;;;;36.43;23.56;100665.17;1732948;81;21092;-85
2022/07/21 10:08:42;;;;;;;;;;;;;;;36.40;23.51;100662.50;1727733;81;20137;-85
2022/07/21 10:11:08;;;;;;;;;;;;;;;36.28;23.41;100661.58;1732227;81;22473;-86
2022/07/21 10:13:35;;;;;;;;;;;;;;;36.31;23.48;100657.55;1734213;81;20271;-89
2022/07/21 10:16:01;;;;;;;;;;;;;;;36.13;23.10;100662.17;1735817;81;20139;-87
2022/07/21 10:18:28;;;;;;;;;;;;;;;35.91;23.07;100662.64;1728496;81;20732;-87
2022/07/21 10:20:58;;;;;;;;;;;;;;;36.02;23.05;100654.19;1733858;82;20248;-86
2022/07/21 10:23:41;;;;;;;;;;;;;;;36.21;23.11;100648.82;1729492;82;21832;-86
2022/07/21 10:26:07;;;;;;;;;;;;;;;36.36;23.21;100653.77;1722349;81;20115;-87
2022/07/21 10:28:34;;;;;;;;;;;;;;;36.46;23.11;100651.42;1732106;82;20138;-87
2022/07/21 10:30:59;;;;;;;;;;;;;;;36.52;23.13;100642.33;1726723;82;20607;-87
2022/07/21 10:33:46;;;;;;;;;;;;;;;36.68;23.16;100647.55;1724552;82;20172;-86
2022/07/21 10:36:33;;;;;;;;;;;;;;;36.80;23.10;100644.84;1728661;82;21847;-87
2022/07/21 10:39:19;;;;;;;;;;;;;;;36.81;22.97;100642.85;1715695;82;20135;-87
2022/07/21 10:41:52;;;;;;;;;;;;;;;36.84;22.95;100638.81;1732814;81;20150;-86
2022/07/21 10:44:31;;;;;;;;;;;;;;;36.84;22.91;100637.42;1737863;81;20589;-87
2022/07/21 10:47:20;;;;;;;;;;;;;;;36.84;22.68;100641.59;1736005;81;20437;-86
2022/07/21 10:49:59;;;;;;;;;;;;;;;36.56;22.49;100644.67;1723750;81;22399;-87
2022/07/21 10:52:45;;;;;;;;;;;;;;;36.61;22.58;100634.76;1731264;81;20171;-86
2022/07/21 10:55:16;;;;;;;;;;;;;;;36.71;22.57;100630.19;1743627;81;20145;-87
2022/07/21 10:57:42;;;;;;;;;;;;;;;36.80;22.49;100623.99;1737601;81;20756;-87
2022/07/21 11:00:24;;;;;;;;;;;;;;;36.88;22.54;100626.44;1713723;82;20113;-86
2022/07/21 11:02:58;;;;;;;;;;;;;;;36.95;22.50;100624.73;1730162;81;22352;-87
2022/07/21 11:05:25;;;;;;;;;;;;;;;37.05;22.47;100622.73;1713727;82;20904;-86
2022/07/21 11:08:11;;;;;;;;;;;;;;;37.00;22.29;100616.77;1727927;81;20378;-87
2022/07/21 11:10:38;;;;;;;;;;;;;;;37.07;22.34;100618.45;1728884;81;20739;-87
2022/07/21 11:13:04;;;;;;;;;;;;;;;37.20;22.38;100619.30;1732084;81;20155;-87
2022/07/21 11:15:53;;;;;;;;;;;;;;;37.29;22.35;100622.25;1734998;82;21870;-87
2022/07/21 11:18:21;;;;;;;;;;;;;;;37.19;22.15;100616.30;1736582;82;20417;-87
2022/07/21 11:21:08;;;;;;;;;;;;;;;36.95;22.01;100617.78;1738999;82;20159;-88
2022/07/21 11:23:45;;;;;;;;;;;;;;;36.96;22.03;100606.91;1722671;81;20677;-87
2022/07/21 11:26:13;;;;;;;;;;;;;;;37.01;22.07;100606.73;1738514;81;20113;-87
2022/07/21 11:28:39;;;;;;;;;;;;;;;37.13;22.11;100598.99;1768994;81;22452;-87
2022/07/21 11:31:13;;;;;;;;;;;;;;;37.25;22.02;100601.01;1729167;82;20236;-87
2022/07/21 11:33:39;;;;;;;;;;;;;;;37.19;21.72;100601.81;1740409;81;20512;-87
2022/07/21 11:36:05;;;;;;;;;;;;;;;36.93;21.66;100606.20;1733565;81;20614;-84
2022/07/21 11:38:31;;;;;;;;;;;;;;;36.80;21.70;100597.58;1735491;81;20174;-84
2022/07/21 11:41:16;;;;;;;;;;;;;;;36.77;21.59;100596.05;1743958;81;21845;-84
2022/07/21 11:43:43;;;;;;;;;;;;;;;36.78;21.64;100590.13;1731618;81;20803;-84
2022/07/21 11:46:09;;;;;;;;;;;;;;;36.93;21.60;100578.39;1741066;81;20415;-83
2022/07/21 11:48:35;;;;;;;;;;;;;;;36.88;21.61;100582.76;1744238;82;20645;-84
2022/07/21 11:51:03;;;;;;;;;;;;;;;36.88;21.49;100581.94;1746254;82;20177;-84
2022/07/21 11:53:30;;;;;;;;;;;;;;;36.85;21.39;100571.51;1745554;82;21868;-84
2022/07/21 11:55:56;;;;;;;;;;;;;;;36.92;21.36;100575.36;1744175;81;20170;-84
2022/07/21 11:58:22;;;;;;;;;;;;;;;36.94;21.16;100560.56;1717602;82;20272;-84
2022/07/21 12:00:48;;;;;;;;;;;;;;;36.94;21.12;100553.60;1746427;81;20707;-84
2022/07/21 12:03:14;;;;;;;;;;;;;;;37.01;21.21;100566.41;1733953;81;20300;-84
2022/07/21 12:05:40;;;;;;;;;;;;;;;37.17;21.21;100564.34;1740398;82;21837;-84
2022/07/21 12:08:06;;;;;;;;;;;;;;;37.31;21.23;100567.05;1732512;81;20161;-84
2022/07/21 12:10:32;;;;;;;;;;;;;;;37.53;21.28;100563.06;1753904;81;20268;-84
2022/07/21 12:13:05;;;;;;;;;;;;;;;37.54;21.03;100570.27;1743156;82;21419;-84
2022/07/21 12:15:35;;;;;;;;;;;;;;;37.45;20.77;100568.11;1739362;81;20427;-84
2022/07/21 12:18:06;;;;;;;;;;;;;;;37.41;20.70;100562.42;1741180;81;21809;-84
2022/07/21 12:20:34;;;;;;;;;;;;;;;37.47;20.53;100558.28;1766696;81;20190;-84
2022/07/21 12:23:02;;;;;;;;;;;;;;;37.52;20.46;100546.12;1769371;81;20167;-84
2022/07/21 12:25:36;;;;;;;;;;;;;;;37.55;20.39;100546.81;1766659;80;20666;-83
2022/07/21 12:28:06;;;;;;;;;;;;;;;37.44;20.40;100548.39;1741173;80;20188;-83
2022/07/21 12:30:35;;;;;;;;;;;;;;;37.45;20.35;100550.02;1732430;82;22664;-84
2022/07/21 12:33:08;;;;;;;;;;;;;;;37.31;20.23;100542.58;1738406;82;20173;-83
2022/07/21 12:35:35;;;;;;;;;;;;;;;37.30;20.35;100536.20;1744918;82;20181;-84
2022/07/21 12:38:03;;;;;;;;;;;;;;;37.30;20.38;100532.59;1744679;82;20563;-84
2022/07/21 12:40:30;;;;;;;;;;;;;;;37.36;20.31;100532.63;1744987;82;20456;-85
2022/07/21 12:43:12;;;;;;;;;;;;;;;37.16;20.23;100530.75;1725322;82;21823;-85